メインページ
METAR-TAF:

METAR-TAF

空港 :

ナイロビ, ケニヤ

緯度: 01-19S, 経度: 036-49E, 海抜: 1683m

現時点の気象観測

当レポートは6時間37分前の18:00(UTC)に作成
東/北東の風 10kt
気温 24°C
湿度 41%
気圧 1016 hPa
視程10km以上
高度2600ftの雲はほとんどない

METAR: HKNW 221800Z 07010KT 9999 FEW026 24/10 Q1016

時間: 03:37 (00:37 UTC)


TAF: 見つかりません

4,000以上の空港の気象観測と天気予報(METAR報とTAF報)

利用可能な観測所は地図上に黄色い丸と赤い丸で示す。

丸の上にカーソルを重ねると観測所名を参照できる。

次にクリックすると気象観測と天気予報を参照できる。

マップの切り替え:黒色「×」印の緑ボタンをクリックして拡大、「-」印の緑ボタンをクリックして縮小、緑色の三角印をクリックして隣りの地図に切り替え


METAR-TAF: